Time,TemperatureF,DewpointF,PressureIn,WindDirection,WindDirectionDegrees,WindSpeedMPH,WindSpeedGustMPH,Humidity,HourlyPrecipIn,Conditions,Clouds,dailyrainin,SoftwareType,DateUTC
2013-04-10 14:47:00,78.6,52.9,30.03,North,0,6.0,10.0,41,0.00,,,0.00,Wunderground v.1.15,2013-04-10 21:47:00,
2013-04-10 15:02:00,76.0,53.7,30.03,NW,315,7.0,7.0,46,0.00,,,0.00,Wunderground v.1.15,2013-04-10 22:02:00,
2013-04-10 15:06:00,74.9,53.9,30.03,NW,312,7.0,7.0,48,0.00,,,0.00,Wunderground v.1.15,2013-04-10 22:06:00,
2013-04-10 15:12:00,74.0,53.1,30.03,NNW,335,8.0,8.0,48,0.00,,,0.00,Wunderground v.1.15,2013-04-10 22:12:00,
2013-04-10 15:16:00,74.4,53.4,30.04,North,0,7.0,8.0,48,0.00,,,0.00,Wunderground v.1.15,2013-04-10 22:16:00,
2013-04-10 15:21:00,73.5,53.7,30.04,NNW,336,7.0,7.0,50,0.00,,,0.00,Wunderground v.1.15,2013-04-10 22:21:00,
2013-04-10 15:27:00,72.7,54.1,30.04,NNW,346,6.0,9.0,52,0.00,,,0.00,Wunderground v.1.15,2013-04-10 22:27:00,
2013-04-10 15:52:00,-999.9,-99.9,-32.77,North,32767,-999.0,0.0,255,-99.99,,,0.00,Wunderground v.1.15,2013-04-10 22:52:00,
2013-04-10 16:07:00,-999.9,-99.9,-32.77,North,32767,-999.0,0.0,255,-99.99,,,0.00,Wunderground v.1.15,2013-04-10 23:07:00,
2013-04-10 16:23:00,72.5,53.9,30.02,NW,305,6.0,6.0,52,0.00,,,0.00,Wunderground v.1.15,2013-04-10 23:23:00,
2013-04-10 16:32:00,72.3,53.7,30.02,NW,320,5.0,6.0,52,0.00,,,0.00,Wunderground v.1.15,2013-04-10 23:32:00,
2013-04-10 16:46:00,70.8,54.3,30.01,WNW,295,5.0,9.0,56,0.00,,,0.00,Wunderground v.1.15,2013-04-10 23:46:00,
2013-04-10 16:56:00,70.3,53.9,30.01,NNW,337,5.0,5.0,56,0.00,,,0.00,Wunderground v.1.15,2013-04-10 23:56:00,
2013-04-10 17:06:00,69.6,53.7,30.02,NNW,344,5.0,5.0,57,0.00,,,0.00,Wunderground v.1.15,2013-04-11 00:06:00,
2013-04-10 17:16:00,69.1,54.2,30.01,NNW,332,5.0,7.0,59,0.00,,,0.00,Wunderground v.1.15,2013-04-11 00:16:00,
2013-04-10 17:26:00,69.1,54.2,30.01,NW,325,6.0,6.0,59,0.00,,,0.00,Wunderground v.1.15,2013-04-11 00:26:00,
2013-04-10 17:36:00,68.4,54.0,30.01,West,277,5.0,6.0,60,0.00,,,0.00,Wunderground v.1.15,2013-04-11 00:36:00,
2013-04-10 20:01:00,60.1,52.9,30.02,NW,315,2.0,2.0,77,0.00,,,0.00,Wunderground v.1.15,2013-04-11 03:01:00,
2013-04-10 20:06:00,59.8,52.9,30.02,North,349,2.0,4.0,78,0.00,,,0.00,Wunderground v.1.15,2013-04-11 03:06:00,
2013-04-10 20:11:00,59.6,52.7,30.02,NW,305,2.0,4.0,78,0.00,,,0.00,Wunderground v.1.15,2013-04-11 03:11:00,
2013-04-10 20:21:00,59.0,52.5,30.02,WNW,295,3.0,3.0,79,0.00,,,0.00,Wunderground v.1.15,2013-04-11 03:21:00,
2013-04-10 20:26:00,58.7,52.5,30.02,NW,325,3.0,3.0,80,0.00,,,0.00,Wunderground v.1.15,2013-04-11 03:26:00,
2013-04-10 20:36:00,58.4,52.3,30.02,NW,323,2.0,2.0,80,0.00,,,0.00,Wunderground v.1.15,2013-04-11 03:36:00,
2013-04-10 20:46:00,58.0,51.9,30.02,NNW,340,3.0,7.0,80,0.00,,,0.00,Wunderground v.1.15,2013-04-11 03:46:00,
2013-04-10 20:56:00,57.2,51.8,30.02,WNW,298,3.0,3.0,82,0.00,,,0.00,Wunderground v.1.15,2013-04-11 03:56:00,
2013-04-10 21:00:00,56.9,51.8,30.03,NNW,339,3.0,3.0,83,0.00,,,0.00,Wunderground v.1.15,2013-04-11 04:00:00,
2013-04-10 21:05:00,56.7,51.9,30.03,NNW,344,3.0,5.0,84,0.00,,,0.00,Wunderground v.1.15,2013-04-11 04:05:00,
2013-04-10 21:11:00,56.6,52.1,30.03,NW,309,2.0,5.0,85,0.00,,,0.00,Wunderground v.1.15,2013-04-11 04:11:00,
2013-04-10 21:20:00,56.3,52.2,30.04,WNW,287,2.0,5.0,86,0.00,,,0.00,Wunderground v.1.15,2013-04-11 04:20:00,
2013-04-10 21:26:00,56.2,52.1,30.04,WNW,298,1.0,2.0,86,0.00,,,0.00,Wunderground v.1.15,2013-04-11 04:26:00,
2013-04-10 21:30:00,56.0,51.9,30.04,NW,306,1.0,2.0,86,0.00,,,0.00,Wunderground v.1.15,2013-04-11 04:30:00,
2013-04-10 21:35:00,55.9,51.8,30.04,West,278,3.0,3.0,86,0.00,,,0.00,Wunderground v.1.15,2013-04-11 04:35:00,
2013-04-10 21:40:00,55.9,52.1,30.04,WNW,296,3.0,3.0,87,0.00,,,0.00,Wunderground v.1.15,2013-04-11 04:40:00,
2013-04-10 21:51:00,55.4,51.6,30.04,West,271,2.0,6.0,87,0.00,,,0.00,Wunderground v.1.15,2013-04-11 04:51:00,
2013-04-10 21:57:00,55.1,51.3,30.04,NW,309,3.0,3.0,87,0.00,,,0.00,Wunderground v.1.15,2013-04-11 04:57:00,
2013-04-10 22:06:00,54.7,51.2,30.05,NNW,337,4.0,6.0,88,0.00,,,0.00,Wunderground v.1.15,2013-04-11 05:06:00,
2013-04-10 22:12:00,54.7,51.5,30.05,NNW,339,4.0,6.0,89,0.00,,,0.00,Wunderground v.1.15,2013-04-11 05:12:00,
2013-04-10 22:21:00,54.2,51.0,30.05,NW,309,4.0,5.0,89,0.00,,,0.00,Wunderground v.1.15,2013-04-11 05:21:00,
2013-04-10 22:26:00,54.1,51.2,30.05,North,0,4.0,4.0,90,0.00,,,0.00,Wunderground v.1.15,2013-04-11 05:26:00,
2013-04-10 22:36:00,53.8,51.2,30.06,NNW,347,3.0,3.0,91,0.00,,,0.00,Wunderground v.1.15,2013-04-11 05:36:00,
2013-04-10 22:41:00,53.8,51.2,30.06,North,350,2.0,3.0,91,0.00,,,0.00,Wunderground v.1.15,2013-04-11 05:41:00,
2013-04-10 22:51:00,53.8,51.2,30.06,NNW,330,2.0,3.0,91,0.00,,,0.00,Wunderground v.1.15,2013-04-11 05:51:00,
2013-04-10 22:57:00,53.8,51.2,30.06,NW,306,2.0,2.0,91,0.00,,,0.00,Wunderground v.1.15,2013-04-11 05:57:00,
2013-04-10 23:06:00,53.8,51.2,30.05,NW,322,1.0,1.0,91,0.00,,,0.00,Wunderground v.1.15,2013-04-11 06:06:00,
2013-04-10 23:11:00,53.8,51.2,30.05,NW,322,0.0,1.0,91,0.00,,,0.00,Wunderground v.1.15,2013-04-11 06:11:00,
2013-04-10 23:21:00,53.9,51.3,30.04,NW,325,0.0,0.0,91,0.00,,,0.00,Wunderground v.1.15,2013-04-11 06:21:00,
2013-04-10 23:26:00,54.1,51.5,30.04,WNW,295,1.0,2.0,91,0.00,,,0.00,Wunderground v.1.15,2013-04-11 06:26:00,
2013-04-10 23:36:00,54.2,51.3,30.04,NW,309,2.0,2.0,90,0.00,,,0.00,Wunderground v.1.15,2013-04-11 06:36:00,
2013-04-10 23:41:00,54.4,51.5,30.04,WNW,294,2.0,3.0,90,0.00,,,0.00,Wunderground v.1.15,2013-04-11 06:41:00,
2013-04-10 23:51:00,54.4,51.5,30.04,NW,312,3.0,3.0,90,0.00,,,0.00,Wunderground v.1.15,2013-04-11 06:51:00,